Aplicació Alertes

Dades de l'estació automàtica Boí (2.535 m)

?
?
Resum diari 22:30 TU
Dades diàries de l'estació meteorològica
Temperatura mitjana -10.2 °C
Temperatura màxima -7.9 °C 22:50 TU
Temperatura mínima -13.5 °C 0:32 TU
Humitat relativa mitjana 79%
Precipitació acumulada 0.0 mm
Gruix de neu màxim 48 cm
Ratxa màxima del vent (6 m) 98.3 km/h - 2º 4:01 TU
Irradiació solar global 3.8 MJ/m2

El tram horari està expressat en Temps Universal (TU). Cal sumar una hora en horari d'hivern i dues en horari d'estiu per passar a l'hora oficial.

Boí (2.535 m)

Metadades estació meteorol´gica
Municipi La Vall de Boí
Comarca Alta Ribagorça
Altitud 2535 m
Data alta 13.11.1998
Estat actual Operativa
Dades de període
Període
TU
TM
°C
TX
°C
TN
°C
HRM
%
PPT
mm
GN
cm
VVM (6 m)
km/h
DVM (6 m)
graus
VVX (6 m)
km/h
RS
W/m2
00:00 - 00:30 -13.2 -13.1 -13.4 83 0.0 47 36.4 331 50.8 0
00:30 - 01:00 -13.2 -13.0 -13.5 81 0.0 47 39.2 336 59.8 0
01:00 - 01:30 -13.2 -12.9 -13.4 76 0.0 47 38.2 329 55.8 0
01:30 - 02:00 -12.8 -12.3 -13.3 70 0.0 46 38.9 324 65.9 0
02:00 - 02:30 -12.6 -12.3 -12.9 62 0.0 48 36.4 327 51.8 0
02:30 - 03:00 -12.4 -11.9 -12.8 57 0.0 47 39.2 326 53.3 0
03:00 - 03:30 -12.2 -11.4 -12.7 54 0.0 46 42.8 330 67.3 0
03:30 - 04:00 -11.8 -11.1 -12.6 59 0.0 42 46.8 0 79.2 0
04:00 - 04:30 -11.5 -11.2 -12.3 62 0.0 41 50.4 341 98.3 0
04:30 - 05:00 -11.5 -11.3 -11.7 70 0.0 40 40.7 341 65.9 0
05:00 - 05:30 -11.3 -11.1 -11.7 72 0.0 39 44.3 341 73.4 0
05:30 - 06:00 -11.2 -10.9 -11.4 70 0.0 38 45.4 0 68.0 0
06:00 - 06:30 -11.2 -11.0 -11.4 71 0.0 36 45.4 0 73.1 0
06:30 - 07:00 -11.1 -10.8 -11.3 71 0.0 34 46.4 0 70.2 0
07:00 - 07:30 -10.8 -10.4 -11.3 70 0.0 (s/d) 46.1 0 76.7 3
07:30 - 08:00 -10.4 -10.2 -10.7 70 0.0 25 46.8 0 75.6 33
08:00 - 08:30 -10.3 -9.9 -10.5 71 0.0 22 41.8 0 69.8 99
08:30 - 09:00 -9.9 -9.7 -10.3 72 0.0 22 44.6 345 69.5 56
09:00 - 09:30 -9.9 -9.6 -10.0 74 0.0 21 42.1 0 69.8 54
09:30 - 10:00 -9.5 -9.2 -9.7 75 0.0 21 39.2 0 65.2 68
10:00 - 10:30 -9.4 -9.2 -9.6 78 0.0 21 31.0 330 58.3 114
10:30 - 11:00 -9.2 -8.8 -9.5 78 0.0 21 32.8 342 69.8 252
11:00 - 11:30 -8.8 -8.5 -9.1 78 0.0 20 36.0 0 74.5 325
11:30 - 12:00 -9.0 -8.9 -9.2 83 0.0 20 21.2 328 70.2 163
12:00 - 12:30 -9.0 -8.7 -9.2 85 0.0 20 25.2 335 59.0 180
12:30 - 13:00 -9.0 -8.8 -9.1 82 0.0 20 27.0 336 50.8 157
13:00 - 13:30 -8.8 -8.5 -9.0 82 0.0 20 24.5 342 47.5 118
13:30 - 14:00 -8.9 -8.7 -9.0 85 0.0 20 26.3 329 50.8 143
14:00 - 14:30 -9.0 -8.9 -9.1 86 0.0 20 41.4 321 63.4 172
14:30 - 15:00 -9.1 -8.9 -9.2 86 0.0 19 46.1 0 64.8 102
15:00 - 15:30 -9.1 -9.1 -9.2 86 0.0 18 52.2 321 71.3 67
15:30 - 16:00 -9.2 -9.1 -9.3 88 0.0 18 51.5 323 70.9 34
16:00 - 16:30 -9.2 -8.9 -9.4 88 0.0 18 46.8 326 67.7 10
16:30 - 17:00 -9.3 -8.7 -9.6 89 0.0 19 41.0 330 61.2 0
17:00 - 17:30 -8.8 -8.5 -9.2 82 0.0 18 40.7 330 72.4 0
17:30 - 18:00 -9.2 -9.0 -9.3 90 0.0 19 41.8 325 55.8 0
18:00 - 18:30 -9.4 -9.3 -9.6 92 0.0 19 34.2 331 49.3 0
18:30 - 19:00 -9.6 -9.4 -9.7 91 0.0 20 29.5 337 47.9 0
19:00 - 19:30 -9.7 -9.5 -9.7 91 0.0 20 28.4 333 43.6 0
19:30 - 20:00 -9.5 -9.3 -9.7 91 0.0 20 28.1 330 44.6 0
20:00 - 20:30 -9.4 -9.2 -9.6 92 0.0 19 25.6 332 47.2 0
20:30 - 21:00 -9.5 -9.4 -9.6 92 0.0 19 27.0 333 38.9 0
21:00 - 21:30 -9.4 -9.3 -9.5 92 0.0 20 31.3 338 46.8 0
21:30 - 22:00 -9.3 -9.1 -9.5 92 0.0 20 32.4 342 53.3 0
22:00 - 22:30 -9.1 -8.9 -9.1 91 0.0 20 18.7 336 43.6 0
22:30 - 23:00 -8.5 -7.9 -9.0 81 0.0 20 23.0 347 47.5 0

Les dades en taronja només han passat un control de qualitat automàtic. Resta pendent la seva validació definitiva.